Montrose, Arkansas
Current Conditions -  °F | °C
As of 10:53 AM on Friday 24 Oct 2014 (Local Time) from KLLQ Reporting Station
Clear Clear  
Wind Chill: 64°   Ceiling: Unl
Heat Index: 64°   Visibility: 10mi
Dew Point: 48°   Wind: 0mph
Humidity: 56%   Direction: NA
Pressure: 30.18"   Gusts: NA
Location:  33.3°N, 91.49°W
Report Text: KLLQ 241553Z AUTO 00000KT 10SM CLR 18/09 A3018 RMK AO2 SLP219 T01780089
Loading
Personal Weather Stations






























Interactive Weather Map
Tropical Storm Tracking
New forecast layout! Learn more

10-Day Weather Forecast

Advertisements
Track Severe Weather on mobile